createdAt,value
2023-03-26T00:01:46.784Z,9.23
2023-03-26T00:04:16.265Z,9.23
2023-03-26T00:06:42.890Z,9.18
2023-03-26T00:09:15.838Z,9.19
2023-03-26T00:11:43.969Z,9.15
2023-03-26T00:14:16.311Z,9.19
2023-03-26T00:16:43.864Z,9.15
2023-03-26T00:19:11.944Z,9.16
2023-03-26T00:21:38.673Z,9.11
2023-03-26T00:24:09.630Z,9.06
2023-03-26T00:26:41.503Z,8.99
2023-03-26T00:29:22.108Z,8.97
2023-03-26T00:31:50.631Z,8.97
2023-03-26T00:34:19.815Z,8.93
2023-03-26T00:36:54.489Z,8.87
2023-03-26T00:39:24.046Z,8.87
2023-03-26T00:41:54.690Z,8.91
2023-03-26T00:44:23.099Z,8.90
2023-03-26T00:46:52.485Z,8.98
2023-03-26T00:49:19.232Z,9.01
2023-03-26T00:51:45.984Z,9.01
2023-03-26T00:54:12.794Z,9.00
2023-03-26T00:56:39.542Z,8.93
2023-03-26T00:59:08.940Z,8.89
2023-03-26T01:01:36.141Z,8.84
2023-03-26T01:04:31.207Z,8.79
2023-03-26T01:07:02.984Z,8.78
2023-03-26T01:09:44.686Z,8.74
2023-03-26T01:12:29.562Z,8.68
2023-03-26T01:15:02.845Z,8.63
2023-03-26T01:17:34.331Z,8.74
2023-03-26T01:20:15.884Z,8.75
2023-03-26T01:23:02.325Z,8.74
2023-03-26T01:25:37.576Z,8.69
2023-03-26T01:28:12.864Z,8.52
2023-03-26T01:30:50.148Z,8.46
2023-03-26T01:37:16.321Z,8.17
2023-03-26T01:40:07.195Z,8.19
2023-03-26T01:42:43.744Z,8.18
2023-03-26T01:45:16.779Z,8.16
2023-03-26T01:47:44.256Z,8.11
2023-03-26T01:50:11.545Z,8.13
2023-03-26T01:52:38.461Z,8.06
2023-03-26T01:55:07.123Z,8.01
2023-03-26T01:58:19.141Z,8.03
2023-03-26T02:01:17.734Z,8.04
2023-03-26T02:03:57.084Z,8.02
2023-03-26T02:09:52.687Z,8.01
2023-03-26T02:12:22.374Z,8.02
2023-03-26T02:14:49.587Z,8.02
2023-03-26T02:17:16.918Z,7.95
2023-03-26T02:19:45.682Z,7.91
2023-03-26T02:22:18.317Z,7.86
2023-03-26T02:24:45.805Z,7.90
2023-03-26T02:27:12.590Z,7.84
2023-03-26T02:29:40.491Z,7.75
2023-03-26T02:32:14.034Z,7.62
2023-03-26T02:34:42.038Z,7.69
2023-03-26T02:37:13.350Z,7.72
2023-03-26T02:39:40.055Z,7.75
2023-03-26T02:42:09.766Z,7.66
2023-03-26T02:44:38.923Z,7.57
2023-03-26T02:47:05.918Z,7.53
2023-03-26T02:49:36.959Z,7.46
2023-03-26T02:52:09.117Z,7.33
2023-03-26T02:54:37.399Z,7.28
2023-03-26T02:57:05.595Z,7.27
2023-03-26T02:59:35.206Z,7.24
2023-03-26T03:02:02.328Z,7.22
2023-03-26T03:04:31.833Z,7.29
2023-03-26T03:07:00.980Z,7.27
2023-03-26T03:09:30.298Z,7.29
2023-03-26T03:12:02.105Z,7.29
2023-03-26T03:14:28.816Z,7.24
2023-03-26T03:16:58.251Z,7.24
2023-03-26T03:19:25.119Z,7.26
2023-03-26T03:21:53.261Z,7.29
2023-03-26T03:24:19.970Z,7.25
2023-03-26T03:26:48.149Z,7.31
2023-03-26T03:29:19.182Z,7.31
2023-03-26T03:31:45.972Z,7.23
2023-03-26T03:34:12.603Z,7.22
2023-03-26T03:36:43.568Z,7.28
2023-03-26T03:39:12.628Z,7.27
2023-03-26T03:41:41.306Z,7.29
2023-03-26T03:44:08.027Z,7.35
2023-03-26T03:46:34.782Z,7.29
2023-03-26T03:49:02.588Z,7.32
2023-03-26T03:51:31.836Z,7.23
2023-03-26T03:53:58.698Z,7.25
2023-03-26T03:56:26.216Z,7.20
2023-03-26T03:58:53.095Z,7.17
2023-03-26T04:01:22.965Z,7.13
2023-03-26T04:03:53.073Z,7.08
2023-03-26T04:06:22.330Z,7.05
2023-03-26T04:08:49.032Z,7.01
2023-03-26T04:11:18.496Z,6.96
2023-03-26T04:13:45.339Z,6.85
2023-03-26T04:16:12.151Z,6.77
2023-03-26T04:18:40.879Z,6.74
2023-03-26T04:21:07.828Z,6.69
2023-03-26T04:23:39.268Z,6.61
2023-03-26T04:26:10.593Z,6.61
2023-03-26T04:28:53.353Z,6.56
2023-03-26T04:31:29.484Z,6.48
2023-03-26T04:34:31.135Z,6.43
2023-03-26T04:36:58.818Z,6.38
2023-03-26T04:39:29.470Z,6.38
2023-03-26T04:41:57.930Z,6.42
2023-03-26T04:44:24.674Z,6.37
2023-03-26T04:46:53.096Z,6.39
2023-03-26T04:49:33.351Z,6.38
2023-03-26T04:52:00.244Z,6.33
2023-03-26T04:54:26.983Z,6.31
2023-03-26T04:57:06.460Z,6.36
2023-03-26T04:59:37.632Z,6.43
2023-03-26T05:02:06.426Z,6.47
2023-03-26T05:04:39.239Z,6.52
2023-03-26T05:07:09.838Z,6.53
2023-03-26T05:09:39.563Z,6.55
2023-03-26T05:12:06.511Z,6.58
2023-03-26T05:14:34.503Z,6.55
2023-03-26T05:17:01.839Z,6.54
2023-03-26T05:19:28.514Z,6.55
2023-03-26T05:21:55.223Z,6.55
2023-03-26T05:24:24.923Z,6.54
2023-03-26T05:26:52.005Z,6.57
2023-03-26T05:29:24.288Z,6.59
2023-03-26T05:31:51.146Z,6.58
2023-03-26T05:34:32.144Z,6.56
2023-03-26T05:36:58.814Z,6.50
2023-03-26T05:39:28.321Z,6.48
2023-03-26T05:41:54.958Z,6.48
2023-03-26T05:44:21.721Z,6.52
2023-03-26T05:46:53.385Z,6.61
2023-03-26T05:49:22.176Z,6.69
2023-03-26T05:51:51.980Z,6.75
2023-03-26T05:54:22.341Z,6.82
2023-03-26T05:56:49.054Z,6.91
2023-03-26T05:59:18.696Z,6.98
2023-03-26T06:01:48.345Z,7.08
2023-03-26T06:04:17.870Z,7.14
2023-03-26T06:06:47.461Z,7.23
2023-03-26T06:09:15.863Z,7.32
2023-03-26T06:11:42.567Z,7.44
2023-03-26T06:14:11.094Z,7.50
2023-03-26T06:16:37.938Z,7.57
2023-03-26T06:19:09.013Z,7.67
2023-03-26T06:21:35.882Z,7.74
2023-03-26T06:24:02.555Z,7.80
2023-03-26T06:26:32.675Z,7.86
2023-03-26T06:29:01.766Z,7.95
2023-03-26T06:31:28.546Z,7.98
2023-03-26T06:33:55.378Z,8.04
2023-03-26T06:36:25.348Z,8.14
2023-03-26T06:38:52.156Z,8.25
2023-03-26T06:41:18.804Z,8.28
2023-03-26T06:43:45.728Z,8.35
2023-03-26T06:46:18.869Z,8.38
2023-03-26T06:48:48.659Z,8.46
2023-03-26T06:51:15.903Z,8.52
2023-03-26T06:53:44.766Z,8.64
2023-03-26T06:56:14.196Z,8.78
2023-03-26T06:58:44.128Z,8.96
2023-03-26T07:01:10.966Z,9.03
2023-03-26T07:03:37.542Z,9.00
2023-03-26T07:06:06.196Z,9.03
2023-03-26T07:08:32.849Z,9.05
2023-03-26T07:10:59.472Z,9.11
2023-03-26T07:13:31.113Z,9.22
2023-03-26T07:15:57.806Z,9.27
2023-03-26T07:18:26.517Z,9.42
2023-03-26T07:21:04.558Z,9.59
2023-03-26T07:23:37.489Z,9.79
2023-03-26T07:26:26.011Z,9.89
2023-03-26T07:29:09.433Z,9.84
2023-03-26T07:31:50.572Z,9.65
2023-03-26T07:34:53.974Z,9.65
2023-03-26T07:37:52.493Z,9.87
2023-03-26T07:40:44.120Z,10.06
2023-03-26T07:43:22.779Z,10.14
2023-03-26T07:45:49.688Z,10.11
2023-03-26T07:48:25.455Z,10.25
2023-03-26T07:50:52.276Z,10.37
2023-03-26T07:53:19.598Z,10.57
2023-03-26T07:56:12.426Z,10.67
2023-03-26T07:58:38.921Z,10.63
2023-03-26T08:01:12.331Z,10.75
2023-03-26T08:03:58.734Z,10.77
2023-03-26T08:15:41.089Z,10.55
2023-03-26T08:18:20.661Z,10.68
2023-03-26T08:21:07.318Z,10.77
2023-03-26T08:23:50.474Z,10.95
2023-03-26T08:26:30.549Z,11.07
2023-03-26T08:29:26.591Z,11.27
2023-03-26T08:32:01.189Z,11.29
2023-03-26T08:37:19.077Z,11.19
2023-03-26T08:39:45.922Z,11.18
2023-03-26T08:42:53.223Z,11.24
2023-03-26T08:45:32.482Z,11.21
2023-03-26T08:48:40.335Z,11.27
2023-03-26T08:51:07.890Z,11.12
2023-03-26T08:53:40.526Z,11.03
2023-03-26T08:59:21.184Z,11.01
2023-03-26T09:02:10.953Z,10.96
2023-03-26T09:04:58.278Z,11.02
2023-03-26T09:07:46.650Z,11.13
2023-03-26T09:10:24.092Z,10.90
2023-03-26T09:13:17.293Z,10.79
2023-03-26T09:15:52.649Z,10.82
2023-03-26T09:18:19.222Z,10.90
2023-03-26T09:20:48.727Z,11.08
2023-03-26T09:23:24.341Z,11.37
2023-03-26T09:26:23.253Z,11.53
2023-03-26T09:29:10.090Z,11.44
2023-03-26T09:31:58.201Z,11.12
2023-03-26T09:34:28.601Z,11.03
2023-03-26T09:36:57.350Z,10.99
2023-03-26T09:39:29.698Z,11.04
2023-03-26T09:42:26.420Z,11.16
2023-03-26T09:44:53.567Z,11.08
2023-03-26T09:47:39.553Z,11.09
2023-03-26T09:50:30.696Z,11.09
2023-03-26T09:53:03.311Z,11.14
2023-03-26T09:55:33.036Z,11.32
2023-03-26T09:58:06.442Z,11.44
2023-03-26T10:00:46.210Z,11.53
2023-03-26T10:03:26.960Z,11.53
2023-03-26T10:06:17.370Z,11.36
2023-03-26T10:09:02.822Z,11.23
2023-03-26T10:11:35.527Z,11.12
2023-03-26T10:14:20.870Z,11.16
2023-03-26T10:17:04.298Z,11.13
2023-03-26T10:19:39.988Z,10.78
2023-03-26T10:22:06.666Z,10.79
2023-03-26T10:24:54.205Z,10.82
2023-03-26T10:27:25.861Z,11.06
2023-03-26T10:30:18.795Z,11.33
2023-03-26T10:32:56.863Z,11.56
2023-03-26T10:35:37.362Z,11.68
2023-03-26T10:38:30.397Z,11.75
2023-03-26T10:41:15.564Z,11.32
2023-03-26T10:44:07.411Z,11.35
2023-03-26T10:46:44.042Z,11.56
2023-03-26T10:49:19.562Z,12.12
2023-03-26T10:51:58.382Z,12.33
2023-03-26T10:54:42.961Z,12.16
2023-03-26T10:57:19.757Z,12.33
2023-03-26T10:59:46.287Z,12.40
2023-03-26T11:02:12.842Z,12.35
2023-03-26T11:04:48.632Z,12.31
2023-03-26T11:07:21.342Z,12.38
2023-03-26T11:10:17.480Z,12.42
2023-03-26T11:12:53.265Z,12.86
2023-03-26T11:15:19.743Z,13.16
2023-03-26T11:17:52.358Z,13.06
2023-03-26T11:20:18.892Z,12.84
2023-03-26T11:22:45.363Z,12.94
2023-03-26T11:25:17.838Z,12.88
2023-03-26T11:27:55.925Z,12.97
2023-03-26T11:30:41.368Z,13.10
2023-03-26T11:33:12.482Z,13.12
2023-03-26T11:35:42.434Z,13.06
2023-03-26T11:38:27.589Z,13.03
2023-03-26T11:40:55.806Z,13.13
2023-03-26T11:43:26.186Z,13.18
2023-03-26T11:45:53.916Z,13.46
2023-03-26T11:48:23.427Z,13.81
2023-03-26T11:50:56.278Z,13.56
2023-03-26T11:53:26.003Z,13.19
2023-03-26T11:56:01.282Z,12.76
2023-03-26T11:58:34.077Z,12.41
2023-03-26T12:01:03.227Z,12.28
2023-03-26T12:03:30.384Z,12.24
2023-03-26T12:05:59.720Z,11.25
2023-03-26T12:08:38.501Z,9.90
2023-03-26T12:11:10.985Z,9.69
2023-03-26T12:13:44.926Z,9.61
2023-03-26T12:16:17.480Z,9.92
2023-03-26T12:18:45.690Z,9.99
2023-03-26T12:21:18.405Z,10.21
2023-03-26T12:24:04.626Z,10.58
2023-03-26T12:26:45.715Z,10.65
2023-03-26T12:29:17.492Z,11.03
2023-03-26T12:32:13.190Z,11.37
2023-03-26T12:34:40.387Z,11.48
2023-03-26T12:37:28.083Z,11.49
2023-03-26T12:40:26.047Z,11.63
2023-03-26T12:44:47.302Z,11.77
2023-03-26T12:46:58.912Z,11.82
2023-03-26T12:48:38.204Z,12.25
2023-03-26T12:51:22.399Z,12.26
2023-03-26T12:54:17.423Z,12.31
2023-03-26T12:57:13.359Z,12.28
2023-03-26T12:59:58.184Z,12.33
2023-03-26T13:02:44.144Z,12.47
2023-03-26T13:05:53.286Z,12.52
2023-03-26T13:08:39.623Z,12.63
2023-03-26T13:11:41.450Z,13.04
2023-03-26T13:14:39.679Z,13.39
2023-03-26T13:17:31.646Z,13.73
2023-03-26T13:20:26.214Z,13.72
2023-03-26T13:22:52.778Z,13.85
2023-03-26T13:25:37.386Z,14.09
2023-03-26T13:28:03.871Z,14.25
2023-03-26T13:30:44.861Z,14.11
2023-03-26T13:33:32.016Z,13.92
2023-03-26T13:36:23.806Z,14.54
2023-03-26T13:38:58.562Z,14.87
2023-03-26T13:41:36.806Z,14.60
2023-03-26T13:44:05.412Z,14.71
2023-03-26T13:46:46.435Z,14.85
2023-03-26T13:49:19.362Z,15.24
2023-03-26T13:52:04.862Z,15.01
2023-03-26T13:54:34.331Z,14.55
2023-03-26T13:57:39.638Z,13.90
2023-03-26T14:00:22.073Z,13.63
2023-03-26T14:03:19.511Z,13.57
2023-03-26T14:06:03.627Z,13.42
2023-03-26T14:08:47.479Z,13.38
2023-03-26T14:11:28.670Z,13.38
2023-03-26T14:14:31.945Z,13.56
2023-03-26T14:17:38.494Z,13.20
2023-03-26T14:20:29.318Z,12.93
2023-03-26T14:23:25.075Z,12.89
2023-03-26T14:26:01.400Z,12.95
2023-03-26T14:29:08.178Z,13.04
2023-03-26T14:32:05.075Z,13.15
2023-03-26T14:34:35.831Z,13.43
2023-03-26T14:37:27.365Z,13.56
2023-03-26T14:39:54.887Z,13.59
2023-03-26T14:43:05.681Z,13.51
2023-03-26T14:45:57.198Z,13.59
2023-03-26T14:48:34.152Z,13.70
2023-03-26T14:51:19.588Z,14.89
2023-03-26T14:54:08.024Z,15.91
2023-03-26T14:56:40.111Z,16.33
2023-03-26T14:59:51.222Z,16.74
2023-03-26T15:02:24.143Z,17.33
2023-03-26T15:04:53.786Z,17.15
2023-03-26T15:07:58.576Z,15.57
2023-03-26T15:10:43.602Z,16.48
2023-03-26T15:13:18.235Z,14.99
2023-03-26T15:15:54.298Z,14.30
2023-03-26T15:18:21.732Z,14.23
2023-03-26T15:20:54.511Z,14.01
2023-03-26T15:24:08.891Z,13.73
2023-03-26T15:27:08.321Z,13.35
2023-03-26T15:29:53.470Z,13.15
2023-03-26T15:32:30.136Z,13.03
2023-03-26T15:35:26.280Z,12.90
2023-03-26T15:38:20.975Z,12.84
2023-03-26T15:41:16.451Z,12.79
2023-03-26T15:44:23.011Z,12.75
2023-03-26T15:50:56.872Z,18.21
2023-03-26T15:53:33.656Z,18.48
2023-03-26T15:56:06.993Z,18.57
2023-03-26T15:58:43.104Z,18.68
2023-03-26T16:01:19.184Z,18.32
2023-03-26T16:04:05.690Z,18.10
2023-03-26T16:06:46.557Z,16.65
2023-03-26T16:09:14.964Z,16.65
2023-03-26T16:11:56.048Z,15.14
2023-03-26T16:14:24.137Z,13.39
2023-03-26T16:16:54.277Z,12.40
2023-03-26T16:19:34.610Z,11.74
2023-03-26T16:22:02.870Z,11.34
2023-03-26T16:24:31.305Z,11.10
2023-03-26T16:27:08.348Z,10.98
2023-03-26T16:30:13.850Z,10.98
2023-03-26T16:32:44.179Z,10.71
2023-03-26T16:35:10.717Z,10.57
2023-03-26T16:38:08.883Z,10.36
2023-03-26T16:43:36.068Z,9.94
2023-03-26T16:46:07.301Z,9.96
2023-03-26T16:48:44.375Z,9.86
2023-03-26T16:51:40.649Z,9.79
2023-03-26T16:54:19.428Z,9.54
2023-03-26T16:57:19.470Z,9.32
2023-03-26T17:00:16.791Z,9.15
2023-03-26T17:02:54.093Z,9.09
2023-03-26T17:05:21.224Z,9.24
2023-03-26T17:08:09.484Z,9.28
2023-03-26T17:10:40.088Z,9.12
2023-03-26T17:13:12.602Z,9.01
2023-03-26T17:15:49.175Z,8.87
2023-03-26T17:18:38.520Z,8.76
2023-03-26T17:21:17.266Z,8.71
2023-03-26T17:24:08.306Z,8.64
2023-03-26T17:27:15.983Z,8.52
2023-03-26T17:30:03.949Z,8.39
2023-03-26T17:32:58.994Z,8.25
2023-03-26T17:35:55.083Z,8.24
2023-03-26T17:38:27.103Z,8.25
2023-03-26T17:40:55.299Z,8.20
2023-03-26T17:43:40.411Z,8.15
2023-03-26T17:46:31.861Z,8.23
2023-03-26T17:49:10.945Z,8.30
2023-03-26T17:51:50.636Z,8.31
2023-03-26T17:54:39.697Z,8.28
2023-03-26T17:57:17.321Z,8.36
2023-03-26T17:59:51.316Z,8.34
2023-03-26T18:02:23.939Z,8.34
2023-03-26T18:04:59.449Z,8.40
2023-03-26T18:07:53.243Z,8.45
2023-03-26T18:10:39.086Z,8.52
2023-03-26T18:13:23.248Z,8.54
2023-03-26T18:16:02.197Z,8.61
2023-03-26T18:18:39.976Z,8.66
2023-03-26T18:21:09.497Z,8.75
2023-03-26T18:23:45.183Z,8.71
2023-03-26T18:26:48.584Z,8.71
2023-03-26T18:29:31.730Z,8.74
2023-03-26T18:32:00.792Z,8.76
2023-03-26T18:34:31.805Z,8.74
2023-03-26T18:37:14.984Z,8.67
2023-03-26T18:39:55.802Z,8.61
2023-03-26T18:45:15.751Z,8.57
2023-03-26T18:47:50.355Z,8.57
2023-03-26T18:50:41.262Z,8.57
2023-03-26T18:53:30.562Z,8.56
2023-03-26T18:55:58.248Z,8.47
2023-03-26T18:58:38.505Z,8.39
2023-03-26T19:01:17.177Z,8.28
2023-03-26T19:03:47.346Z,8.27
2023-03-26T19:06:15.235Z,8.15
2023-03-26T19:08:44.731Z,8.16
2023-03-26T19:11:12.505Z,8.10
2023-03-26T19:13:54.355Z,8.00
2023-03-26T19:16:33.118Z,7.69
2023-03-26T19:19:01.366Z,7.59
2023-03-26T19:21:33.060Z,7.47
2023-03-26T19:24:01.081Z,7.35
2023-03-26T19:26:31.488Z,7.24
2023-03-26T19:29:00.934Z,7.28
2023-03-26T19:31:45.228Z,7.29
2023-03-26T19:34:11.854Z,7.13
2023-03-26T19:36:58.075Z,6.87
2023-03-26T19:39:54.400Z,6.68
2023-03-26T19:42:43.604Z,6.69
2023-03-26T19:45:23.241Z,6.53
2023-03-26T19:48:03.580Z,6.59
2023-03-26T19:51:05.537Z,6.61
2023-03-26T19:53:37.365Z,6.55
2023-03-26T19:56:16.306Z,6.54
2023-03-26T19:58:43.205Z,6.45
2023-03-26T20:01:24.901Z,6.32
2023-03-26T20:03:55.604Z,6.11
2023-03-26T20:06:34.032Z,6.03
2023-03-26T20:09:11.020Z,6.00
2023-03-26T20:11:40.381Z,5.90
2023-03-26T20:14:16.275Z,5.96
2023-03-26T20:16:46.202Z,5.99
2023-03-26T20:19:23.053Z,6.00
2023-03-26T20:21:56.068Z,5.93
2023-03-26T20:24:28.272Z,5.81
2023-03-26T20:26:56.546Z,5.70
2023-03-26T20:29:30.482Z,5.68
2023-03-26T20:31:59.158Z,5.59
2023-03-26T20:34:26.206Z,5.51
2023-03-26T20:37:01.375Z,5.49
2023-03-26T20:39:31.118Z,5.45
2023-03-26T20:42:02.548Z,5.54
2023-03-26T20:44:36.703Z,5.43
2023-03-26T20:47:10.953Z,5.51
2023-03-26T20:49:40.537Z,5.39
2023-03-26T20:52:10.003Z,5.33
2023-03-26T20:54:38.961Z,5.20
2023-03-26T20:57:08.414Z,5.10
2023-03-26T20:59:37.810Z,5.06
2023-03-26T21:02:09.022Z,5.04
2023-03-26T21:04:35.983Z,4.96
2023-03-26T21:07:11.186Z,4.93
2023-03-26T21:09:49.150Z,4.83
2023-03-26T21:12:30.136Z,4.78
2023-03-26T21:15:10.242Z,4.68
2023-03-26T21:17:46.971Z,4.63
2023-03-26T21:20:16.134Z,4.60
2023-03-26T21:23:05.998Z,4.55
2023-03-26T21:25:53.025Z,4.60
2023-03-26T21:28:39.709Z,4.61
2023-03-26T21:31:15.745Z,4.58
2023-03-26T21:33:45.517Z,4.44
2023-03-26T21:36:13.398Z,4.42
2023-03-26T21:38:43.677Z,4.34
2023-03-26T21:41:38.866Z,4.22
2023-03-26T21:44:05.730Z,4.16
2023-03-26T21:46:34.832Z,4.04
2023-03-26T21:49:02.188Z,4.04
2023-03-26T21:51:30.287Z,3.93
2023-03-26T21:53:57.240Z,3.89
2023-03-26T21:56:26.570Z,3.87
2023-03-26T21:59:16.481Z,3.85
2023-03-26T22:01:45.552Z,3.75
2023-03-26T22:04:19.872Z,3.69
2023-03-26T22:06:47.269Z,3.67
2023-03-26T22:09:16.681Z,3.69
2023-03-26T22:11:45.234Z,3.62
2023-03-26T22:14:13.446Z,3.48
2023-03-26T22:16:42.858Z,3.43
2023-03-26T22:19:17.663Z,3.37
2023-03-26T22:21:47.716Z,3.28
2023-03-26T22:24:14.432Z,3.29
2023-03-26T22:26:45.881Z,3.19
2023-03-26T22:29:16.574Z,3.25
2023-03-26T22:31:44.008Z,3.18
2023-03-26T22:34:11.782Z,3.13
2023-03-26T22:36:40.239Z,3.13
2023-03-26T22:39:07.408Z,3.14
2023-03-26T22:41:38.224Z,3.17
2023-03-26T22:44:19.799Z,3.15
2023-03-26T22:46:49.660Z,3.12
2023-03-26T22:49:17.068Z,3.00
2023-03-26T22:51:47.853Z,3.03
2023-03-26T22:54:19.539Z,3.00
2023-03-26T22:56:46.368Z,2.94
2023-03-26T22:59:16.071Z,2.87
2023-03-26T23:01:48.201Z,2.82
2023-03-26T23:04:31.337Z,2.83
2023-03-26T23:06:59.134Z,2.80
2023-03-26T23:09:28.774Z,2.75
2023-03-26T23:12:01.197Z,2.66
2023-03-26T23:14:32.554Z,2.60
2023-03-26T23:16:59.665Z,2.51
2023-03-26T23:19:30.209Z,2.47
2023-03-26T23:21:59.403Z,2.24
2023-03-26T23:24:26.952Z,2.08
2023-03-26T23:26:57.158Z,2.12
2023-03-26T23:29:34.248Z,2.16
2023-03-26T23:32:01.421Z,2.26
2023-03-26T23:34:28.430Z,2.26
2023-03-26T23:36:58.228Z,2.24
2023-03-26T23:39:28.743Z,2.26
2023-03-26T23:42:12.422Z,2.23
2023-03-26T23:44:49.217Z,2.26
2023-03-26T23:47:20.320Z,2.24
2023-03-26T23:49:47.336Z,2.19
2023-03-26T23:52:22.227Z,2.17
2023-03-26T23:54:53.453Z,2.19
2023-03-26T23:57:20.284Z,2.10
2023-03-26T23:59:46.932Z,2.15
